createdAt,value
2017-01-10T00:00:33.461Z,725.41
2017-01-10T00:01:33.437Z,725.36
2017-01-10T00:02:33.416Z,725.45
2017-01-10T00:03:33.393Z,725.39
2017-01-10T00:04:33.366Z,725.46
2017-01-10T00:05:33.345Z,725.43
2017-01-10T00:06:33.318Z,725.47
2017-01-10T00:07:33.297Z,725.45
2017-01-10T00:08:33.274Z,725.44
2017-01-10T00:09:33.250Z,725.4
2017-01-10T00:10:33.223Z,725.37
2017-01-10T00:11:33.202Z,725.33
2017-01-10T00:12:33.178Z,725.37
2017-01-10T00:13:33.154Z,725.28
2017-01-10T00:14:33.130Z,725.19
2017-01-10T00:15:33.103Z,725.31
2017-01-10T00:16:33.080Z,725.25
2017-01-10T00:17:33.058Z,725.24
2017-01-10T00:18:33.034Z,725.27
2017-01-10T00:19:33.008Z,725.28
2017-01-10T00:20:32.987Z,725.2
2017-01-10T00:21:32.959Z,725.28
2017-01-10T00:22:32.938Z,725.2
2017-01-10T00:23:32.914Z,725.21
2017-01-10T00:24:32.886Z,725.22
2017-01-10T00:25:32.865Z,725.17
2017-01-10T00:26:32.842Z,725.17
2017-01-10T00:27:32.817Z,725.21
2017-01-10T00:28:32.790Z,725.16
2017-01-10T00:29:32.769Z,725.12
2017-01-10T00:30:32.745Z,725.16
2017-01-10T00:31:32.721Z,725.09
2017-01-10T00:32:32.696Z,725.07
2017-01-10T00:33:32.669Z,725.08
2017-01-10T00:34:32.649Z,724.97
2017-01-10T00:35:32.623Z,725.06
2017-01-10T00:36:32.596Z,725.06
2017-01-10T00:37:32.576Z,725.06
2017-01-10T00:38:32.551Z,724.99
2017-01-10T00:39:32.526Z,725.01
2017-01-10T00:40:32.499Z,724.93
2017-01-10T00:41:32.474Z,724.99
2017-01-10T00:42:32.450Z,724.95
2017-01-10T00:43:32.428Z,724.94
2017-01-10T00:44:32.401Z,725.02
2017-01-10T00:45:32.376Z,724.95
2017-01-10T00:46:32.351Z,725.04
2017-01-10T00:47:32.330Z,725.01
2017-01-10T00:48:32.305Z,724.96
2017-01-10T00:49:32.281Z,724.99
2017-01-10T00:50:32.252Z,724.99
2017-01-10T00:51:32.228Z,724.94
2017-01-10T00:52:32.203Z,724.9
2017-01-10T00:53:32.178Z,724.97
2017-01-10T00:54:32.153Z,724.92
2017-01-10T00:55:32.131Z,724.95
2017-01-10T00:56:32.107Z,724.9
2017-01-10T00:57:32.081Z,725.02
2017-01-10T00:58:32.056Z,725.01
2017-01-10T00:59:32.028Z,724.97
2017-01-10T01:00:32.006Z,724.96
2017-01-10T01:01:31.981Z,724.95
2017-01-10T01:02:31.956Z,724.97
2017-01-10T01:03:31.932Z,724.85
2017-01-10T01:04:31.907Z,724.94
2017-01-10T01:05:31.881Z,724.91
2017-01-10T01:06:31.854Z,724.91
2017-01-10T01:07:31.829Z,724.94
2017-01-10T01:08:31.803Z,724.98
2017-01-10T01:09:31.782Z,724.89
2017-01-10T01:10:31.754Z,724.86
2017-01-10T01:11:31.733Z,724.91
2017-01-10T01:12:31.707Z,724.86
2017-01-10T01:13:31.679Z,724.91
2017-01-10T01:14:31.654Z,724.79
2017-01-10T01:15:31.630Z,724.76
2017-01-10T01:16:31.614Z,724.83
2017-01-10T01:17:31.579Z,724.88
2017-01-10T01:18:31.555Z,724.84
2017-01-10T01:19:31.529Z,724.81
2017-01-10T01:20:31.504Z,724.85
2017-01-10T01:21:31.479Z,724.85
2017-01-10T01:22:31.455Z,724.78
2017-01-10T01:23:31.431Z,724.81
2017-01-10T01:24:31.408Z,724.81
2017-01-10T01:25:31.383Z,724.79
2017-01-10T01:26:31.355Z,724.81
2017-01-10T01:27:31.330Z,724.81
2017-01-10T01:28:31.306Z,724.88
2017-01-10T01:29:31.281Z,724.8
2017-01-10T01:30:31.259Z,724.86
2017-01-10T01:31:31.235Z,724.74
2017-01-10T01:32:31.210Z,724.82
2017-01-10T01:33:31.183Z,724.84
2017-01-10T01:34:31.157Z,724.79
2017-01-10T01:35:31.140Z,724.75
2017-01-10T01:36:31.109Z,724.71
2017-01-10T01:37:31.087Z,724.65
2017-01-10T01:38:31.063Z,724.8
2017-01-10T01:39:31.039Z,724.72
2017-01-10T01:40:31.010Z,724.7
2017-01-10T01:41:30.986Z,724.69
2017-01-10T01:42:30.962Z,724.62
2017-01-10T01:43:30.940Z,724.66
2017-01-10T01:44:30.912Z,724.62
2017-01-10T01:45:30.887Z,724.67
2017-01-10T01:46:30.862Z,724.51
2017-01-10T01:47:30.838Z,724.74
2017-01-10T01:48:30.813Z,724.64
2017-01-10T01:49:30.791Z,724.69
2017-01-10T01:50:30.767Z,724.59
2017-01-10T01:51:30.740Z,724.65
2017-01-10T01:52:30.715Z,724.58
2017-01-10T01:53:30.693Z,724.5
2017-01-10T01:54:30.669Z,724.58
2017-01-10T01:55:30.644Z,724.65
2017-01-10T01:56:30.616Z,724.54
2017-01-10T01:57:30.595Z,724.64
2017-01-10T01:58:30.568Z,724.65
2017-01-10T01:59:30.545Z,724.68
2017-01-10T02:00:30.518Z,724.52
2017-01-10T02:01:30.497Z,724.57
2017-01-10T02:02:30.473Z,724.65
2017-01-10T02:03:30.445Z,724.62
2017-01-10T02:04:30.424Z,724.6
2017-01-10T02:05:30.400Z,724.56
2017-01-10T02:06:30.375Z,724.52
2017-01-10T02:07:30.350Z,724.57
2017-01-10T02:08:30.323Z,724.5
2017-01-10T02:09:30.299Z,724.52
2017-01-10T02:10:30.273Z,724.53
2017-01-10T02:11:30.252Z,724.49
2017-01-10T02:12:30.225Z,724.44
2017-01-10T02:13:30.200Z,724.48
2017-01-10T02:14:30.178Z,724.47
2017-01-10T02:15:30.150Z,724.49
2017-01-10T02:16:30.129Z,724.44
2017-01-10T02:18:30.079Z,724.35
2017-01-10T02:19:30.054Z,724.42
2017-01-10T02:20:30.030Z,724.26
2017-01-10T02:21:30.002Z,724.31
2017-01-10T02:22:29.977Z,724.32
2017-01-10T02:23:29.953Z,724.36
2017-01-10T02:24:29.928Z,724.34
2017-01-10T02:25:29.902Z,724.34
2017-01-10T02:26:29.881Z,724.35
2017-01-10T02:28:29.828Z,724.33
2017-01-10T02:29:29.803Z,724.4
2017-01-10T02:30:29.778Z,724.34
2017-01-10T02:31:29.756Z,724.34
2017-01-10T02:32:29.727Z,724.35
2017-01-10T02:33:29.703Z,724.37
2017-01-10T02:34:29.681Z,724.35
2017-01-10T02:35:29.656Z,724.28
2017-01-10T02:36:29.628Z,724.21
2017-01-10T02:37:29.606Z,724.25
2017-01-10T02:38:29.581Z,724.18
2017-01-10T02:39:29.554Z,724.19
2017-01-10T02:40:29.531Z,724.26
2017-01-10T02:41:29.504Z,724.26
2017-01-10T02:42:29.482Z,724.31
2017-01-10T02:43:29.454Z,724.29
2017-01-10T02:44:29.429Z,724.22
2017-01-10T02:45:29.405Z,724.3
2017-01-10T02:46:29.383Z,724.28
2017-01-10T02:47:29.358Z,724.17
2017-01-10T02:48:29.333Z,724.22
2017-01-10T02:49:29.306Z,724.25
2017-01-10T02:50:29.285Z,724.2
2017-01-10T02:51:29.259Z,724.2
2017-01-10T02:52:29.234Z,724.15
2017-01-10T02:53:29.206Z,724.16
2017-01-10T02:54:29.181Z,724.11
2017-01-10T02:55:29.160Z,723.97
2017-01-10T02:56:29.132Z,724.17
2017-01-10T02:57:29.110Z,724.1
2017-01-10T02:58:29.082Z,724.08
2017-01-10T02:59:29.060Z,724.11
2017-01-10T03:00:29.040Z,723.96
2017-01-10T03:01:29.011Z,724.05
2017-01-10T03:02:28.985Z,724.22
2017-01-10T03:03:28.961Z,724.05
2017-01-10T03:04:28.936Z,723.98
2017-01-10T03:05:28.911Z,724.16
2017-01-10T03:06:28.886Z,724.08
2017-01-10T03:07:28.862Z,724.12
2017-01-10T03:08:28.837Z,723.86
2017-01-10T03:09:28.808Z,724.01
2017-01-10T03:10:28.787Z,723.99
2017-01-10T03:11:28.759Z,723.92
2017-01-10T03:12:28.738Z,723.97
2017-01-10T03:13:28.711Z,723.82
2017-01-10T03:14:28.689Z,723.82
2017-01-10T03:15:28.665Z,723.83
2017-01-10T03:16:28.636Z,723.79
2017-01-10T03:17:28.611Z,723.85
2017-01-10T03:18:28.590Z,723.76
2017-01-10T03:19:28.562Z,723.89
2017-01-10T03:20:28.536Z,723.72
2017-01-10T03:21:28.515Z,723.8
2017-01-10T03:22:28.490Z,723.78
2017-01-10T03:23:28.462Z,723.65
2017-01-10T03:24:28.437Z,723.74
2017-01-10T03:25:28.415Z,723.75
2017-01-10T03:26:28.388Z,723.6
2017-01-10T03:27:28.365Z,723.69
2017-01-10T03:28:28.341Z,723.68
2017-01-10T03:29:28.313Z,723.6
2017-01-10T03:30:28.291Z,723.64
2017-01-10T03:31:28.266Z,723.37
2017-01-10T03:32:28.238Z,723.55
2017-01-10T03:33:28.217Z,723.43
2017-01-10T03:34:28.188Z,723.43
2017-01-10T03:35:28.166Z,723.35
2017-01-10T03:36:28.142Z,723.44
2017-01-10T03:37:28.114Z,723.43
2017-01-10T03:38:28.088Z,723.49
2017-01-10T03:39:28.067Z,723.4
2017-01-10T03:40:28.042Z,723.49
2017-01-10T03:41:28.017Z,723.43
2017-01-10T03:42:27.992Z,723.43
2017-01-10T03:43:27.964Z,723.38
2017-01-10T03:44:27.942Z,723.48
2017-01-10T03:45:27.916Z,723.38
2017-01-10T03:46:27.892Z,723.46
2017-01-10T03:47:27.864Z,723.42
2017-01-10T03:48:27.839Z,723.49
2017-01-10T03:49:27.816Z,723.44
2017-01-10T03:50:27.788Z,723.45
2017-01-10T03:51:27.767Z,723.43
2017-01-10T03:52:27.739Z,723.29
2017-01-10T03:53:27.715Z,723.44
2017-01-10T03:54:27.689Z,723.46
2017-01-10T03:55:27.667Z,723.38
2017-01-10T03:56:27.639Z,723.41
2017-01-10T03:57:27.617Z,723.39
2017-01-10T03:58:27.589Z,723.41
2017-01-10T03:59:27.568Z,723.35
2017-01-10T04:00:27.538Z,723.34
2017-01-10T04:01:27.517Z,723.33
2017-01-10T04:02:27.489Z,723.35
2017-01-10T04:03:27.470Z,723.34
2017-01-10T04:04:27.441Z,723.31
2017-01-10T04:05:27.417Z,723.29
2017-01-10T04:06:27.389Z,723.19
2017-01-10T04:07:27.363Z,723.32
2017-01-10T04:08:27.341Z,723.22
2017-01-10T04:09:27.313Z,723.2
2017-01-10T04:10:27.289Z,723.16
2017-01-10T04:11:27.266Z,723.01
2017-01-10T04:12:27.238Z,723.18
2017-01-10T04:13:27.217Z,723.08
2017-01-10T04:14:27.191Z,723.19
2017-01-10T04:15:27.162Z,723.09
2017-01-10T04:16:27.137Z,722.96
2017-01-10T04:17:27.116Z,722.97
2017-01-10T04:18:27.089Z,723.09
2017-01-10T04:19:27.065Z,722.92
2017-01-10T04:20:27.037Z,723.09
2017-01-10T04:21:27.012Z,723.05
2017-01-10T04:22:26.986Z,723
2017-01-10T04:23:26.964Z,722.97
2017-01-10T04:24:26.939Z,723.09
2017-01-10T04:25:26.911Z,722.99
2017-01-10T04:26:26.889Z,723.04
2017-01-10T04:27:26.860Z,723.03
2017-01-10T04:28:26.839Z,723.08
2017-01-10T04:29:26.810Z,723.06
2017-01-10T04:30:26.787Z,723.04
2017-01-10T04:31:26.760Z,723.06
2017-01-10T04:32:26.736Z,723.03
2017-01-10T04:33:26.713Z,723.07
2017-01-10T04:34:26.685Z,723.1
2017-01-10T04:35:26.661Z,723.07
2017-01-10T04:36:26.639Z,723.05
2017-01-10T04:37:26.610Z,723.04
2017-01-10T04:38:26.586Z,723.02
2017-01-10T04:39:26.561Z,723.04
2017-01-10T04:40:26.539Z,722.96
2017-01-10T04:41:26.514Z,722.84
2017-01-10T04:42:26.486Z,722.96
2017-01-10T04:43:26.462Z,722.96
2017-01-10T04:44:26.439Z,722.87
2017-01-10T04:45:26.415Z,722.85
2017-01-10T04:46:26.387Z,722.86
2017-01-10T04:47:26.362Z,722.86
2017-01-10T04:48:26.337Z,722.85
2017-01-10T04:49:26.312Z,722.87
2017-01-10T04:50:26.291Z,722.72
2017-01-10T04:51:26.262Z,722.68
2017-01-10T04:52:26.237Z,722.8
2017-01-10T04:53:26.212Z,722.84
2017-01-10T04:54:26.191Z,722.69
2017-01-10T04:55:26.162Z,722.81
2017-01-10T04:56:26.137Z,722.82
2017-01-10T04:57:26.115Z,722.77
2017-01-10T04:58:26.089Z,722.83
2017-01-10T04:59:26.061Z,722.61
2017-01-10T05:00:26.036Z,722.7
2017-01-10T05:01:26.015Z,722.76
2017-01-10T05:02:25.985Z,722.73
2017-01-10T05:03:25.964Z,722.53
2017-01-10T05:04:25.936Z,722.5
2017-01-10T05:05:25.914Z,722.54
2017-01-10T05:06:25.888Z,722.47
2017-01-10T05:07:25.863Z,722.55
2017-01-10T05:08:25.838Z,722.59
2017-01-10T05:09:25.809Z,722.6
2017-01-10T05:10:25.787Z,722.5
2017-01-10T05:11:25.759Z,722.5
2017-01-10T05:12:25.734Z,722.53
2017-01-10T05:13:25.708Z,722.49
2017-01-10T05:14:25.683Z,722.55
2017-01-10T05:15:25.662Z,722.58
2017-01-10T05:16:25.637Z,722.62
2017-01-10T05:17:25.608Z,722.59
2017-01-10T05:18:25.586Z,722.57
2017-01-10T05:19:25.559Z,722.57
2017-01-10T05:20:25.535Z,722.6
2017-01-10T05:21:25.510Z,722.61
2017-01-10T05:22:25.483Z,722.55
2017-01-10T05:23:25.460Z,722.58
2017-01-10T05:24:25.432Z,722.52
2017-01-10T05:25:25.407Z,722.54
2017-01-10T05:26:25.385Z,722.49
2017-01-10T05:27:25.360Z,722.44
2017-01-10T05:28:25.331Z,722.47
2017-01-10T05:29:25.310Z,722.45
2017-01-10T05:30:25.285Z,722.38
2017-01-10T05:31:25.256Z,722.32
2017-01-10T05:32:25.232Z,722.37
2017-01-10T05:33:25.208Z,722.32
2017-01-10T05:34:25.185Z,722.41
2017-01-10T05:35:25.156Z,722.43
2017-01-10T05:36:25.134Z,722.4
2017-01-10T05:37:25.106Z,722.41
2017-01-10T05:38:25.081Z,722.28
2017-01-10T05:39:25.058Z,722.3
2017-01-10T05:40:25.034Z,722.37
2017-01-10T05:41:25.005Z,722.37
2017-01-10T05:42:24.979Z,722.36
2017-01-10T05:43:24.957Z,722.39
2017-01-10T05:44:24.932Z,722.35
2017-01-10T05:45:24.907Z,722.24
2017-01-10T05:46:24.881Z,722.34
2017-01-10T05:47:24.853Z,722.34
2017-01-10T05:48:24.831Z,722.36
2017-01-10T05:49:24.806Z,722.26
2017-01-10T05:50:24.777Z,722.25
2017-01-10T05:51:24.752Z,722.3
2017-01-10T05:52:24.727Z,722.32
2017-01-10T05:53:24.701Z,722.32
2017-01-10T05:54:24.676Z,722.28
2017-01-10T05:55:24.654Z,722.39
2017-01-10T05:56:24.630Z,722.27
2017-01-10T05:57:24.603Z,722.3
2017-01-10T05:58:24.575Z,722.3
2017-01-10T05:59:24.550Z,722.2
2017-01-10T06:00:24.528Z,722.25
2017-01-10T06:01:24.502Z,722.23
2017-01-10T06:02:24.474Z,722.2
2017-01-10T06:03:24.453Z,722.14
2017-01-10T06:04:24.426Z,722.17
2017-01-10T06:05:24.401Z,722.17
2017-01-10T06:06:24.373Z,722.21
2017-01-10T06:07:24.348Z,722.19
2017-01-10T06:08:24.322Z,722.23
2017-01-10T06:09:24.300Z,722.16
2017-01-10T06:10:24.271Z,722.18
2017-01-10T06:11:24.249Z,722.2
2017-01-10T06:12:24.220Z,722.21
2017-01-10T06:13:24.197Z,722.17
2017-01-10T06:14:24.169Z,722.21
2017-01-10T06:15:24.146Z,722.2
2017-01-10T06:16:24.117Z,722.11
2017-01-10T06:17:24.095Z,722.16
2017-01-10T06:18:24.070Z,722.15
2017-01-10T06:19:24.040Z,722.14
2017-01-10T06:20:24.018Z,722.07
2017-01-10T06:21:23.989Z,722.1
2017-01-10T06:22:23.966Z,722.08
2017-01-10T06:23:23.941Z,721.98
2017-01-10T06:24:23.916Z,722
2017-01-10T06:25:23.890Z,721.93
2017-01-10T06:26:23.862Z,722.02
2017-01-10T06:27:23.838Z,722.01
2017-01-10T06:28:23.809Z,722.02
2017-01-10T06:29:23.786Z,722.07
2017-01-10T06:30:23.760Z,722
2017-01-10T06:31:23.731Z,722.07
2017-01-10T06:32:23.706Z,721.96
2017-01-10T06:33:23.683Z,721.94
2017-01-10T06:34:23.654Z,721.94
2017-01-10T06:35:23.632Z,721.96
2017-01-10T06:36:23.603Z,721.91
2017-01-10T06:37:23.577Z,721.95
2017-01-10T06:38:23.552Z,721.94
2017-01-10T06:39:23.526Z,721.9
2017-01-10T06:40:23.501Z,721.88
2017-01-10T06:41:23.475Z,721.8
2017-01-10T06:42:23.453Z,721.94
2017-01-10T06:43:23.425Z,721.88
2017-01-10T06:44:23.398Z,721.87
2017-01-10T06:45:23.376Z,721.87
2017-01-10T06:46:23.352Z,721.92
2017-01-10T06:47:23.326Z,721.89
2017-01-10T06:48:23.300Z,721.98
2017-01-10T06:49:23.276Z,721.92
2017-01-10T06:50:23.251Z,721.99
2017-01-10T06:51:23.223Z,721.94
2017-01-10T06:52:23.200Z,721.95
2017-01-10T06:53:23.176Z,721.97
2017-01-10T06:54:23.148Z,721.97
2017-01-10T06:55:23.122Z,721.97
2017-01-10T06:56:23.101Z,722.03
2017-01-10T06:57:23.077Z,721.99
2017-01-10T06:58:23.052Z,722.06
2017-01-10T06:59:23.026Z,722.01
2017-01-10T07:00:23.001Z,721.98
2017-01-10T07:01:22.976Z,721.99
2017-01-10T07:02:22.949Z,721.98
2017-01-10T07:03:22.923Z,721.96
2017-01-10T07:04:22.901Z,721.91
2017-01-10T07:05:22.877Z,721.94
2017-01-10T07:06:22.848Z,721.97
2017-01-10T07:07:22.827Z,721.97
2017-01-10T07:08:22.799Z,721.99
2017-01-10T07:09:22.777Z,721.97
2017-01-10T07:10:22.752Z,721.97
2017-01-10T07:11:22.730Z,721.93
2017-01-10T07:12:22.700Z,721.93
2017-01-10T07:13:22.675Z,721.95
2017-01-10T07:14:22.653Z,721.96
2017-01-10T07:15:22.626Z,721.99
2017-01-10T07:16:22.602Z,721.94
2017-01-10T07:17:22.577Z,721.96
2017-01-10T07:18:22.553Z,721.85
2017-01-10T07:19:22.532Z,721.89
2017-01-10T07:20:22.505Z,721.89
2017-01-10T07:21:22.483Z,721.92
2017-01-10T07:22:22.456Z,721.84
2017-01-10T07:23:22.432Z,721.88
2017-01-10T07:24:22.409Z,721.87
2017-01-10T07:25:22.387Z,721.92
2017-01-10T07:26:22.360Z,721.91
2017-01-10T07:27:22.337Z,721.9
2017-01-10T07:28:22.316Z,721.89
2017-01-10T07:29:22.290Z,721.86
2017-01-10T07:30:22.270Z,721.9
2017-01-10T07:31:22.242Z,721.9
2017-01-10T07:32:22.220Z,721.92
2017-01-10T07:33:22.197Z,721.82
2017-01-10T07:34:22.177Z,721.83
2017-01-10T07:35:22.156Z,721.79
2017-01-10T07:36:22.131Z,721.81
2017-01-10T07:37:22.109Z,721.81
2017-01-10T07:38:22.083Z,721.85
2017-01-10T07:39:22.062Z,721.78
2017-01-10T07:40:22.040Z,721.79
2017-01-10T07:41:22.015Z,721.72
2017-01-10T07:42:21.992Z,721.88
2017-01-10T07:43:21.970Z,721.85
2017-01-10T07:44:21.949Z,721.91
2017-01-10T07:45:21.923Z,721.9
2017-01-10T07:46:21.904Z,721.86
2017-01-10T07:47:21.880Z,721.85
2017-01-10T07:48:21.858Z,721.83
2017-01-10T07:49:21.835Z,721.85
2017-01-10T07:50:21.809Z,721.84
2017-01-10T07:51:21.790Z,721.83
2017-01-10T07:52:21.765Z,721.84
2017-01-10T07:53:21.742Z,721.81
2017-01-10T07:54:21.719Z,721.84
2017-01-10T07:55:21.700Z,721.82
2017-01-10T07:56:21.678Z,721.86
2017-01-10T07:57:21.656Z,721.82
2017-01-10T07:58:21.634Z,721.77
2017-01-10T07:59:21.612Z,721.8
2017-01-10T08:00:21.608Z,721.82
2017-01-10T08:01:21.565Z,721.79
2017-01-10T08:02:21.544Z,721.79
2017-01-10T08:03:21.522Z,721.74
2017-01-10T08:04:21.501Z,721.76
2017-01-10T08:05:21.482Z,721.79
2017-01-10T08:06:21.458Z,721.81
2017-01-10T08:07:21.440Z,721.78
2017-01-10T08:08:21.418Z,721.78
2017-01-10T08:09:21.394Z,721.82
2017-01-10T08:10:21.376Z,721.74
2017-01-10T08:11:21.352Z,721.75
2017-01-10T08:12:21.335Z,721.81
2017-01-10T08:13:21.312Z,721.81
2017-01-10T08:14:21.292Z,721.8
2017-01-10T08:15:21.272Z,721.81
2017-01-10T08:16:21.252Z,721.77
2017-01-10T08:17:21.233Z,721.78
2017-01-10T08:18:21.213Z,721.76
2017-01-10T08:19:21.193Z,721.74
2017-01-10T08:20:21.174Z,721.73
2017-01-10T08:21:21.156Z,721.71
2017-01-10T08:22:21.141Z,721.72
2017-01-10T08:23:21.119Z,721.71
2017-01-10T08:24:21.100Z,721.75
2017-01-10T08:25:21.082Z,721.76
2017-01-10T08:26:21.065Z,721.72
2017-01-10T08:27:21.046Z,721.72
2017-01-10T08:28:21.032Z,721.75
2017-01-10T08:29:21.014Z,721.71
2017-01-10T08:30:20.993Z,721.68
2017-01-10T08:31:20.976Z,721.67
2017-01-10T08:32:20.959Z,721.66
2017-01-10T08:33:20.945Z,721.64
2017-01-10T08:34:20.925Z,721.65
2017-01-10T08:35:20.910Z,721.65
2017-01-10T08:36:20.889Z,721.66
2017-01-10T08:37:20.876Z,721.6
2017-01-10T08:38:20.855Z,721.66
2017-01-10T08:39:20.838Z,721.63
2017-01-10T08:40:20.824Z,721.69
2017-01-10T08:41:20.806Z,721.64
2017-01-10T08:42:20.786Z,721.7
2017-01-10T08:43:20.769Z,721.67
2017-01-10T08:44:20.756Z,721.69
2017-01-10T08:45:20.735Z,721.68
2017-01-10T08:46:20.721Z,721.64
2017-01-10T08:47:20.702Z,721.67
2017-01-10T08:48:20.689Z,721.64
2017-01-10T08:49:20.668Z,721.63
2017-01-10T08:50:20.654Z,721.66
2017-01-10T08:51:20.634Z,721.67
2017-01-10T08:52:20.617Z,721.67
2017-01-10T08:53:20.599Z,721.61
2017-01-10T08:54:20.583Z,721.66
2017-01-10T08:55:20.568Z,721.66
2017-01-10T08:56:20.554Z,721.67
2017-01-10T08:57:20.538Z,721.64
2017-01-10T08:58:20.519Z,721.67
2017-01-10T08:59:20.507Z,721.7
2017-01-10T09:00:20.487Z,721.67
2017-01-10T09:01:20.475Z,721.61
2017-01-10T09:02:20.457Z,721.63
2017-01-10T09:03:20.441Z,721.64
2017-01-10T09:04:20.430Z,721.61
2017-01-10T09:05:20.412Z,721.62
2017-01-10T09:06:20.401Z,721.58
2017-01-10T09:07:20.386Z,721.61
2017-01-10T09:08:20.369Z,721.58
2017-01-10T09:09:20.355Z,721.58
2017-01-10T09:10:20.344Z,721.6
2017-01-10T09:11:20.330Z,721.6
2017-01-10T09:12:20.316Z,721.66
2017-01-10T09:13:20.299Z,721.62
2017-01-10T09:14:20.288Z,721.66
2017-01-10T09:15:20.274Z,721.68
2017-01-10T09:16:20.261Z,721.69
2017-01-10T09:17:20.247Z,721.67
2017-01-10T09:18:20.229Z,721.73
2017-01-10T09:19:20.219Z,721.73
2017-01-10T09:20:20.206Z,721.73
2017-01-10T09:21:20.192Z,721.71
2017-01-10T09:22:20.178Z,721.74
2017-01-10T09:23:20.162Z,721.72
2017-01-10T09:24:20.151Z,721.74
2017-01-10T09:25:20.134Z,721.76
2017-01-10T09:26:20.126Z,721.76
2017-01-10T09:27:20.110Z,721.72
2017-01-10T09:28:20.097Z,721.72
2017-01-10T09:29:20.082Z,721.76
2017-01-10T09:30:20.066Z,721.78
2017-01-10T09:31:20.055Z,721.75
2017-01-10T09:32:20.038Z,721.77
2017-01-10T09:33:20.024Z,721.75
2017-01-10T09:34:20.013Z,721.74
2017-01-10T09:35:19.996Z,721.75
2017-01-10T09:36:19.984Z,721.72
2017-01-10T09:37:19.970Z,721.75
2017-01-10T09:38:19.956Z,721.75
2017-01-10T09:39:19.939Z,721.74
2017-01-10T09:40:19.924Z,721.76
2017-01-10T09:41:19.912Z,721.79
2017-01-10T09:42:19.895Z,721.78
2017-01-10T09:43:19.883Z,721.78
2017-01-10T09:44:19.865Z,721.81
2017-01-10T09:45:19.852Z,721.81
2017-01-10T09:46:19.840Z,721.79
2017-01-10T09:47:19.821Z,721.72
2017-01-10T09:48:19.806Z,721.7
2017-01-10T09:49:19.794Z,721.76
2017-01-10T09:50:19.776Z,721.7
2017-01-10T09:51:19.762Z,721.76
2017-01-10T09:52:19.744Z,721.72
2017-01-10T09:53:19.728Z,721.73
2017-01-10T09:54:19.711Z,721.71
2017-01-10T09:55:19.699Z,721.71
2017-01-10T09:56:19.679Z,721.71
2017-01-10T09:57:19.663Z,721.7
2017-01-10T09:58:19.650Z,721.68
2017-01-10T09:59:19.634Z,721.66
2017-01-10T10:00:19.618Z,721.61
2017-01-10T10:01:19.602Z,721.58
2017-01-10T10:02:19.582Z,721.61
2017-01-10T10:03:19.571Z,721.58
2017-01-10T10:04:19.550Z,721.56
2017-01-10T10:05:19.537Z,721.55
2017-01-10T10:06:19.520Z,721.57
2017-01-10T10:07:19.501Z,721.56
2017-01-10T10:08:19.486Z,721.55
2017-01-10T10:09:19.472Z,721.54
2017-01-10T10:10:19.456Z,721.55
2017-01-10T10:11:19.441Z,721.54
2017-01-10T10:12:19.422Z,721.49
2017-01-10T10:13:19.410Z,721.52
2017-01-10T10:14:19.390Z,721.51
2017-01-10T10:15:19.375Z,721.47
2017-01-10T10:16:19.359Z,721.49
2017-01-10T10:17:19.347Z,721.46
2017-01-10T10:18:19.329Z,721.28
2017-01-10T10:19:19.314Z,721.34
2017-01-10T10:20:19.297Z,721.35
2017-01-10T10:21:19.285Z,721.42
2017-01-10T10:22:19.270Z,721.43
2017-01-10T10:23:19.255Z,721.42
2017-01-10T10:24:19.236Z,721.38
2017-01-10T10:25:19.224Z,721.38
2017-01-10T10:26:19.206Z,721.37
2017-01-10T10:27:19.193Z,721.35
2017-01-10T10:28:19.178Z,721.36
2017-01-10T10:29:19.162Z,721.35
2017-01-10T10:30:19.144Z,721.38
2017-01-10T10:31:19.131Z,721.41
2017-01-10T10:32:19.116Z,721.37
2017-01-10T10:33:19.097Z,721.36
2017-01-10T10:34:19.085Z,721.35
2017-01-10T10:35:19.069Z,721.38
2017-01-10T10:36:19.051Z,721.34
2017-01-10T10:37:19.039Z,721.35
2017-01-10T10:38:19.020Z,721.24
2017-01-10T10:39:19.005Z,721.27
2017-01-10T10:40:18.994Z,721.25
2017-01-10T10:41:18.976Z,721.24
2017-01-10T10:42:18.963Z,721.22
2017-01-10T10:43:18.948Z,721.19
2017-01-10T10:44:18.934Z,721.24
2017-01-10T10:45:18.920Z,721.24
2017-01-10T10:46:18.901Z,721.17
2017-01-10T10:47:18.887Z,721.13
2017-01-10T10:48:18.874Z,721.12
2017-01-10T10:49:18.861Z,721.13
2017-01-10T10:50:18.854Z,721.1
2017-01-10T10:51:18.832Z,721.1
2017-01-10T10:52:18.821Z,721.12
2017-01-10T10:53:18.799Z,721.1
2017-01-10T10:54:18.789Z,721.09
2017-01-10T10:55:18.771Z,721.06
2017-01-10T10:56:18.761Z,721.02
2017-01-10T10:57:18.742Z,720.99
2017-01-10T10:58:18.729Z,721.02
2017-01-10T10:59:18.718Z,721.04
2017-01-10T11:00:18.700Z,720.99
2017-01-10T11:01:18.688Z,720.99
2017-01-10T11:02:18.670Z,721.04
2017-01-10T11:03:18.656Z,721.01
2017-01-10T11:04:18.640Z,721.01
2017-01-10T11:05:18.624Z,720.99
2017-01-10T11:06:18.610Z,721.03
2017-01-10T11:07:18.594Z,720.97
2017-01-10T11:08:18.582Z,721.03
2017-01-10T11:09:18.563Z,721.03
2017-01-10T11:10:18.552Z,721.01
2017-01-10T11:11:18.535Z,720.95
2017-01-10T11:12:18.516Z,720.99
2017-01-10T11:13:18.506Z,720.99
2017-01-10T11:14:18.488Z,720.95
2017-01-10T11:15:18.468Z,720.92
2017-01-10T11:16:18.456Z,720.91
2017-01-10T11:17:18.440Z,720.89
2017-01-10T11:18:18.424Z,720.89
2017-01-10T11:19:18.408Z,720.88
2017-01-10T11:20:18.390Z,720.86
2017-01-10T11:21:18.379Z,720.79
2017-01-10T11:22:18.359Z,720.8
2017-01-10T11:23:18.348Z,720.77
2017-01-10T11:24:18.330Z,720.82
2017-01-10T11:25:18.318Z,720.81
2017-01-10T11:26:18.303Z,720.78
2017-01-10T11:27:18.285Z,720.74
2017-01-10T11:28:18.270Z,720.76
2017-01-10T11:29:18.258Z,720.76
2017-01-10T11:30:18.243Z,720.72
2017-01-10T11:31:18.229Z,720.7
2017-01-10T11:32:18.215Z,720.68
2017-01-10T11:33:18.196Z,720.68
2017-01-10T11:34:18.184Z,720.67
2017-01-10T11:35:18.166Z,720.66
2017-01-10T11:36:18.155Z,720.66
2017-01-10T11:37:18.136Z,720.66
2017-01-10T11:38:18.124Z,720.66
2017-01-10T11:39:18.109Z,720.65
2017-01-10T11:40:18.093Z,720.68
2017-01-10T11:41:18.079Z,720.64
2017-01-10T11:42:18.064Z,720.63
2017-01-10T11:43:18.047Z,720.66
2017-01-10T11:44:18.028Z,720.58
2017-01-10T11:45:18.015Z,720.59
2017-01-10T11:46:17.997Z,720.6
2017-01-10T11:47:17.981Z,720.6
2017-01-10T11:48:17.968Z,720.57
2017-01-10T11:49:17.952Z,720.55
2017-01-10T11:50:17.937Z,720.56
2017-01-10T11:51:17.917Z,720.55
2017-01-10T11:52:17.902Z,720.53
2017-01-10T11:53:17.889Z,720.54
2017-01-10T11:54:17.874Z,720.54
2017-01-10T11:55:17.854Z,720.53
2017-01-10T11:56:17.838Z,720.52
2017-01-10T11:57:17.825Z,720.56
2017-01-10T11:58:17.808Z,720.5
2017-01-10T11:59:17.788Z,720.51
2017-01-10T12:00:17.776Z,720.35
2017-01-10T12:01:17.759Z,720.51
2017-01-10T12:02:17.739Z,720.53
2017-01-10T12:03:17.718Z,720.48
2017-01-10T12:04:17.701Z,720.47
2017-01-10T12:05:17.683Z,720.46
2017-01-10T12:06:17.667Z,720.43
2017-01-10T12:07:17.646Z,720.42
2017-01-10T12:08:17.628Z,720.42
2017-01-10T12:09:17.613Z,720.29
2017-01-10T12:10:17.594Z,720.4
2017-01-10T12:11:17.573Z,720.43
2017-01-10T12:12:17.553Z,720.43
2017-01-10T12:13:17.538Z,720.38
2017-01-10T12:14:17.519Z,720.35
2017-01-10T12:15:17.498Z,720.36
2017-01-10T12:16:17.480Z,720.42
2017-01-10T12:17:17.463Z,720.44
2017-01-10T12:18:17.442Z,720.38
2017-01-10T12:19:17.426Z,720.42
2017-01-10T12:20:17.407Z,720.4
2017-01-10T12:21:17.388Z,720.35
2017-01-10T12:22:17.369Z,720.35
2017-01-10T12:23:17.348Z,720.37
2017-01-10T12:24:17.332Z,720.31
2017-01-10T12:25:17.314Z,720.3
2017-01-10T12:26:17.295Z,720.36
2017-01-10T12:27:17.280Z,720.3
2017-01-10T12:28:17.259Z,720.27
2017-01-10T12:29:17.247Z,720.21
2017-01-10T12:30:17.223Z,720.22
2017-01-10T12:31:17.205Z,720.23
2017-01-10T12:32:17.183Z,720.2